createdAt,value
2017-10-31T00:00:33.740Z,7.20
2017-10-31T00:02:36.400Z,7.20
2017-10-31T00:04:39.066Z,7.10
2017-10-31T00:06:42.472Z,7.20
2017-10-31T00:08:45.266Z,7.20
2017-10-31T00:10:47.910Z,7.20
2017-10-31T00:12:51.438Z,7.10
2017-10-31T00:14:54.145Z,7.10
2017-10-31T00:16:56.798Z,7.20
2017-10-31T00:18:59.559Z,7.10
2017-10-31T00:21:02.337Z,7.20
2017-10-31T00:23:05.004Z,7.20
2017-10-31T00:25:07.687Z,7.10
2017-10-31T00:27:10.366Z,7.10
2017-10-31T00:29:13.054Z,7.00
2017-10-31T00:31:15.822Z,7.00
2017-10-31T00:33:18.475Z,7.10
2017-10-31T00:35:22.143Z,7.10
2017-10-31T00:37:24.881Z,7.10
2017-10-31T00:39:27.572Z,7.10
2017-10-31T00:41:30.233Z,7.10
2017-10-31T00:43:32.908Z,7.10
2017-10-31T00:45:35.581Z,7.10
2017-10-31T00:47:38.234Z,7.10
2017-10-31T00:49:41.676Z,7.10
2017-10-31T00:51:44.430Z,7.10
2017-10-31T00:53:47.133Z,7.20
2017-10-31T00:55:49.790Z,7.10
2017-10-31T00:57:52.453Z,7.10
2017-10-31T00:59:55.356Z,7.10
2017-10-31T01:01:58.015Z,7.10
2017-10-31T01:04:00.705Z,7.00
2017-10-31T01:06:03.363Z,7.00
2017-10-31T01:08:06.016Z,7.10
2017-10-31T01:10:09.441Z,7.20
2017-10-31T01:12:12.109Z,7.20
2017-10-31T01:14:14.791Z,7.20
2017-10-31T01:16:17.450Z,7.20
2017-10-31T01:18:20.096Z,7.30
2017-10-31T01:20:22.770Z,7.30
2017-10-31T01:22:25.427Z,7.30
2017-10-31T01:24:28.104Z,7.20
2017-10-31T01:26:30.825Z,7.20
2017-10-31T01:28:33.605Z,7.20
2017-10-31T01:30:36.288Z,7.20
2017-10-31T01:32:39.041Z,7.20
2017-10-31T01:34:42.476Z,7.20
2017-10-31T01:36:45.117Z,7.10
2017-10-31T01:38:48.579Z,7.20
2017-10-31T01:40:51.223Z,7.20
2017-10-31T01:42:53.921Z,7.20
2017-10-31T01:44:56.622Z,7.20
2017-10-31T01:47:00.066Z,7.20
2017-10-31T01:49:02.753Z,7.20
2017-10-31T01:51:05.410Z,7.20
2017-10-31T01:53:08.089Z,7.20
2017-10-31T01:55:10.920Z,7.30
2017-10-31T01:57:13.608Z,7.20
2017-10-31T01:59:17.082Z,7.20
2017-10-31T02:01:21.381Z,7.20
2017-10-31T02:03:24.076Z,7.20
2017-10-31T02:05:26.797Z,7.20
2017-10-31T02:07:29.471Z,7.20
2017-10-31T02:09:32.138Z,7.20
2017-10-31T02:11:35.564Z,7.20
2017-10-31T02:13:38.331Z,7.20
2017-10-31T02:15:41.007Z,7.20
2017-10-31T02:17:43.676Z,7.20
2017-10-31T02:19:46.407Z,7.20
2017-10-31T02:21:49.108Z,7.10
2017-10-31T02:23:52.590Z,7.20
2017-10-31T02:25:55.270Z,7.10
2017-10-31T02:27:57.988Z,7.10
2017-10-31T02:30:00.817Z,7.10
2017-10-31T02:32:03.490Z,7.10
2017-10-31T02:34:06.199Z,7.10
2017-10-31T02:36:09.743Z,7.20
2017-10-31T02:38:12.454Z,7.20
2017-10-31T02:40:15.191Z,7.20
2017-10-31T02:42:17.892Z,7.30
2017-10-31T02:44:20.609Z,7.30
2017-10-31T02:46:23.347Z,7.30
2017-10-31T02:48:26.106Z,7.20
2017-10-31T02:50:28.831Z,7.20
2017-10-31T02:52:32.291Z,7.20
2017-10-31T02:54:34.970Z,7.20
2017-10-31T02:56:37.691Z,7.20
2017-10-31T02:58:40.349Z,7.30
2017-10-31T03:00:43.802Z,7.30
2017-10-31T03:02:46.758Z,7.30
2017-10-31T03:04:49.412Z,7.20
2017-10-31T03:06:52.977Z,7.20
2017-10-31T03:08:55.708Z,7.20
2017-10-31T03:10:58.412Z,7.20
2017-10-31T03:13:01.242Z,7.30
2017-10-31T03:15:03.962Z,7.20
2017-10-31T03:17:07.837Z,7.20
2017-10-31T03:19:10.673Z,7.20
2017-10-31T03:21:13.357Z,7.30
2017-10-31T03:23:16.941Z,7.30
2017-10-31T03:25:19.668Z,7.20
2017-10-31T03:27:22.355Z,7.30
2017-10-31T03:29:25.153Z,7.30
2017-10-31T03:31:27.881Z,7.30
2017-10-31T03:33:31.437Z,7.20
2017-10-31T03:35:34.141Z,7.20
2017-10-31T03:37:36.872Z,7.30
2017-10-31T03:39:39.786Z,7.30
2017-10-31T03:41:42.485Z,7.40
2017-10-31T03:43:46.008Z,7.30
2017-10-31T03:45:48.681Z,7.30
2017-10-31T03:47:51.357Z,7.30
2017-10-31T03:49:54.070Z,7.40
2017-10-31T03:51:56.754Z,7.40
2017-10-31T03:53:59.438Z,7.40
2017-10-31T03:56:02.164Z,7.40
2017-10-31T03:58:04.834Z,7.40
2017-10-31T04:00:08.769Z,7.30
2017-10-31T04:02:11.500Z,7.40
2017-10-31T04:04:14.946Z,7.40
2017-10-31T04:06:18.887Z,7.40
2017-10-31T04:08:21.600Z,7.40
2017-10-31T04:10:24.419Z,7.40
2017-10-31T04:12:27.133Z,7.40
2017-10-31T04:14:30.601Z,7.40
2017-10-31T04:16:33.352Z,7.40
2017-10-31T04:18:36.190Z,7.40
2017-10-31T04:20:39.721Z,7.40
2017-10-31T04:22:42.496Z,7.30
2017-10-31T04:24:45.205Z,7.30
2017-10-31T04:26:47.875Z,7.30
2017-10-31T04:28:50.777Z,7.30
2017-10-31T04:30:53.439Z,7.40
2017-10-31T04:32:56.108Z,7.40
2017-10-31T04:34:58.818Z,7.40
2017-10-31T04:37:02.456Z,7.40
2017-10-31T04:39:05.183Z,7.40
2017-10-31T04:41:07.913Z,7.30
2017-10-31T04:43:10.689Z,7.20
2017-10-31T04:45:13.507Z,7.20
2017-10-31T04:47:16.190Z,7.20
2017-10-31T04:49:18.864Z,7.20
2017-10-31T04:51:21.611Z,7.20
2017-10-31T04:53:24.291Z,7.20
2017-10-31T04:55:27.830Z,7.20
2017-10-31T04:57:31.281Z,7.30
2017-10-31T04:59:33.976Z,7.30
2017-10-31T05:01:36.718Z,7.30
2017-10-31T05:03:39.419Z,7.20
2017-10-31T05:05:42.111Z,7.20
2017-10-31T05:07:44.750Z,7.20
2017-10-31T05:09:47.732Z,7.30
2017-10-31T05:11:50.377Z,7.30
2017-10-31T05:13:53.854Z,7.30
2017-10-31T05:15:56.498Z,7.30
2017-10-31T05:17:59.164Z,7.30
2017-10-31T05:20:01.848Z,7.30
2017-10-31T05:22:04.545Z,7.30
2017-10-31T05:24:07.235Z,7.30
2017-10-31T05:26:09.884Z,7.40
2017-10-31T05:28:12.652Z,7.40
2017-10-31T05:30:15.321Z,7.30
2017-10-31T05:32:17.974Z,7.30
2017-10-31T05:34:20.645Z,7.30
2017-10-31T05:36:25.857Z,7.30
2017-10-31T05:38:28.520Z,7.30
2017-10-31T05:40:31.228Z,7.40
2017-10-31T05:42:34.648Z,7.40
2017-10-31T05:44:37.313Z,7.40
2017-10-31T05:46:39.957Z,7.30
2017-10-31T05:48:43.480Z,7.30
2017-10-31T05:50:46.136Z,7.30
2017-10-31T05:52:49.672Z,7.30
2017-10-31T05:54:52.445Z,7.30
2017-10-31T05:56:55.109Z,7.30
2017-10-31T05:58:57.820Z,7.30
2017-10-31T06:01:00.470Z,7.40
2017-10-31T06:03:03.186Z,7.40
2017-10-31T06:05:05.868Z,7.40
2017-10-31T06:07:08.601Z,7.40
2017-10-31T06:09:11.387Z,7.40
2017-10-31T06:11:14.088Z,7.40
2017-10-31T06:13:16.753Z,7.40
2017-10-31T06:15:19.434Z,7.40
2017-10-31T06:17:22.092Z,7.40
2017-10-31T06:19:24.766Z,7.40
2017-10-31T06:21:27.462Z,7.50
2017-10-31T06:23:35.788Z,7.40
2017-10-31T06:25:45.223Z,7.40
2017-10-31T06:27:53.615Z,7.50
2017-10-31T06:30:03.031Z,7.50
2017-10-31T06:32:10.149Z,7.50
2017-10-31T06:34:12.871Z,7.50
2017-10-31T06:36:15.547Z,7.50
2017-10-31T06:38:18.195Z,7.50
2017-10-31T06:40:21.684Z,7.50
2017-10-31T06:42:25.139Z,7.60
2017-10-31T06:44:27.822Z,7.60
2017-10-31T06:46:30.477Z,7.60
2017-10-31T06:48:33.152Z,7.60
2017-10-31T06:50:35.818Z,7.60
2017-10-31T06:52:38.461Z,7.50
2017-10-31T06:54:41.146Z,7.50
2017-10-31T06:56:44.568Z,7.60
2017-10-31T06:58:47.220Z,7.60
2017-10-31T07:00:50.662Z,7.60
2017-10-31T07:02:53.423Z,7.60
2017-10-31T07:04:56.110Z,7.60
2017-10-31T07:06:58.791Z,7.70
2017-10-31T07:09:01.438Z,7.60
2017-10-31T07:11:04.081Z,7.60
2017-10-31T07:13:08.283Z,7.70
2017-10-31T07:15:10.959Z,7.70
2017-10-31T07:17:14.368Z,7.90
2017-10-31T07:19:17.033Z,7.90
2017-10-31T07:21:19.698Z,7.90
2017-10-31T07:23:22.373Z,7.90
2017-10-31T07:25:25.113Z,7.90
2017-10-31T07:27:29.083Z,7.80
2017-10-31T07:29:31.987Z,7.80
2017-10-31T07:31:34.692Z,7.90
2017-10-31T07:33:37.351Z,7.80
2017-10-31T07:35:40.030Z,7.90
2017-10-31T07:37:42.706Z,7.90
2017-10-31T07:39:45.363Z,7.90
2017-10-31T07:41:48.039Z,7.90
2017-10-31T07:43:50.727Z,7.90
2017-10-31T07:45:53.388Z,7.90
2017-10-31T07:47:56.072Z,8.00
2017-10-31T07:49:58.741Z,7.90
2017-10-31T07:52:02.159Z,8.00
2017-10-31T07:54:04.854Z,8.00
2017-10-31T07:56:07.510Z,8.10
2017-10-31T07:58:10.168Z,8.10
2017-10-31T08:00:12.872Z,8.10
2017-10-31T08:02:15.519Z,8.10
2017-10-31T08:04:18.210Z,8.30
2017-10-31T08:06:20.890Z,8.30
2017-10-31T08:08:23.562Z,8.30
2017-10-31T08:10:26.240Z,8.50
2017-10-31T08:12:28.920Z,8.60
2017-10-31T08:14:31.683Z,8.70
2017-10-31T08:16:34.369Z,8.90
2017-10-31T08:18:37.154Z,8.90
2017-10-31T08:20:40.651Z,9.10
2017-10-31T08:22:43.325Z,9.00
2017-10-31T08:24:45.998Z,9.10
2017-10-31T08:26:48.697Z,9.20
2017-10-31T08:28:51.354Z,9.10
2017-10-31T08:30:54.009Z,9.00
2017-10-31T08:32:56.710Z,9.10
2017-10-31T08:34:59.428Z,9.00
2017-10-31T08:37:02.867Z,9.00
2017-10-31T08:39:05.576Z,9.00
2017-10-31T08:41:08.294Z,9.10
2017-10-31T08:43:11.725Z,9.10
2017-10-31T08:45:14.479Z,9.10
2017-10-31T08:47:17.148Z,9.00
2017-10-31T08:49:20.587Z,9.20
2017-10-31T08:51:23.291Z,9.20
2017-10-31T08:53:26.023Z,9.20
2017-10-31T08:55:28.680Z,9.20
2017-10-31T08:57:31.357Z,9.30
2017-10-31T08:59:34.050Z,9.40
2017-10-31T09:01:36.711Z,9.60
2017-10-31T09:03:39.396Z,9.70
2017-10-31T09:05:42.059Z,9.60
2017-10-31T09:07:44.722Z,9.80
2017-10-31T09:09:48.252Z,10.50
2017-10-31T09:11:51.045Z,10.50
2017-10-31T09:13:53.806Z,10.70
2017-10-31T09:15:57.535Z,10.60
2017-10-31T09:18:00.227Z,10.40
2017-10-31T09:20:02.922Z,10.30
2017-10-31T09:22:06.351Z,10.40
2017-10-31T09:24:09.026Z,10.30
2017-10-31T09:26:11.677Z,10.40
2017-10-31T09:28:15.105Z,10.20
2017-10-31T09:30:17.800Z,10.10
2017-10-31T09:32:20.452Z,10.10
2017-10-31T09:34:23.131Z,10.10
2017-10-31T09:36:25.790Z,10.20
2017-10-31T09:38:28.476Z,10.40
2017-10-31T09:40:31.150Z,10.40
2017-10-31T09:42:33.828Z,10.50
2017-10-31T09:44:36.532Z,10.50
2017-10-31T09:46:39.199Z,10.70
2017-10-31T09:48:41.871Z,10.80
2017-10-31T09:50:44.572Z,11.10
2017-10-31T09:52:47.248Z,11.20
2017-10-31T09:54:49.915Z,11.20
2017-10-31T09:56:52.604Z,11.30
2017-10-31T09:58:55.282Z,11.50
2017-10-31T10:00:57.991Z,11.30
2017-10-31T10:03:01.498Z,11.20
2017-10-31T10:05:04.214Z,11.10
2017-10-31T10:07:06.972Z,11.00
2017-10-31T10:09:09.686Z,11.10
2017-10-31T10:11:12.422Z,10.90
2017-10-31T10:13:15.078Z,11.00
2017-10-31T10:15:18.504Z,11.20
2017-10-31T10:17:21.166Z,11.20
2017-10-31T10:19:23.857Z,11.40
2017-10-31T10:21:26.513Z,11.50
2017-10-31T10:23:29.170Z,11.50
2017-10-31T10:25:32.615Z,11.50
2017-10-31T10:27:35.311Z,11.50
2017-10-31T10:29:37.995Z,11.20
2017-10-31T10:31:40.696Z,11.30
2017-10-31T10:33:44.152Z,11.10
2017-10-31T10:35:46.887Z,11.10
2017-10-31T10:37:49.544Z,11.20
2017-10-31T10:39:52.983Z,11.20
2017-10-31T10:41:55.645Z,11.20
2017-10-31T10:43:58.382Z,11.20
2017-10-31T10:46:01.846Z,11.30
2017-10-31T10:48:04.519Z,11.30
2017-10-31T10:50:07.261Z,11.30
2017-10-31T10:52:09.973Z,11.30
2017-10-31T10:54:12.693Z,11.40
2017-10-31T10:56:16.316Z,11.50
2017-10-31T10:58:19.026Z,11.50
2017-10-31T11:02:55.487Z,11.40
2017-10-31T11:04:58.178Z,11.40
2017-10-31T11:07:00.870Z,11.30
2017-10-31T11:09:03.583Z,11.30
2017-10-31T11:11:07.037Z,11.10
2017-10-31T11:13:09.735Z,11.10
2017-10-31T11:15:12.447Z,11.10
2017-10-31T11:17:15.132Z,11.20
2017-10-31T11:19:17.859Z,11.30
2017-10-31T11:21:20.546Z,11.50
2017-10-31T11:23:24.028Z,11.70
2017-10-31T11:25:26.696Z,11.70
2017-10-31T11:27:29.396Z,11.70
2017-10-31T11:29:34.891Z,11.90
2017-10-31T11:31:37.550Z,11.90
2017-10-31T11:33:40.216Z,11.90
2017-10-31T11:35:42.947Z,12.00
2017-10-31T11:37:45.620Z,12.20
2017-10-31T11:39:48.317Z,12.40
2017-10-31T11:41:51.748Z,12.00
2017-10-31T11:43:54.408Z,12.00
2017-10-31T11:45:57.099Z,11.70
2017-10-31T11:47:59.786Z,11.80
2017-10-31T11:50:02.477Z,11.70
2017-10-31T11:52:05.136Z,11.70
2017-10-31T11:54:07.823Z,11.70
2017-10-31T11:56:10.536Z,11.80
2017-10-31T11:58:14.109Z,11.70
2017-10-31T12:00:16.803Z,11.70
2017-10-31T12:02:19.491Z,11.60
2017-10-31T12:04:22.918Z,11.60
2017-10-31T12:06:25.620Z,11.60
2017-10-31T12:08:28.588Z,11.70
2017-10-31T12:10:31.256Z,11.60
2017-10-31T12:12:33.905Z,11.60
2017-10-31T12:14:37.370Z,11.50
2017-10-31T12:16:40.453Z,11.50
2017-10-31T12:18:43.137Z,11.60
2017-10-31T12:20:45.870Z,11.60
2017-10-31T12:22:48.560Z,11.50
2017-10-31T12:24:51.280Z,11.40
2017-10-31T12:26:54.008Z,11.40
2017-10-31T12:28:56.667Z,11.30
2017-10-31T12:30:59.405Z,11.20
2017-10-31T12:33:02.156Z,11.10
2017-10-31T12:35:04.857Z,11.10
2017-10-31T12:37:07.506Z,11.10
2017-10-31T12:39:10.197Z,11.00
2017-10-31T12:41:12.922Z,11.00
2017-10-31T12:43:15.596Z,10.90
2017-10-31T12:45:18.309Z,10.80
2017-10-31T12:47:20.980Z,10.80
2017-10-31T12:49:23.654Z,10.80
2017-10-31T12:51:26.354Z,10.80
2017-10-31T12:53:29.005Z,10.80
2017-10-31T12:55:31.702Z,10.90
2017-10-31T12:57:34.391Z,11.00
2017-10-31T12:59:37.093Z,11.10
2017-10-31T13:01:40.568Z,11.10
2017-10-31T13:03:43.216Z,11.10
2017-10-31T13:05:45.970Z,11.10
2017-10-31T13:07:48.683Z,11.10
2017-10-31T13:09:51.389Z,11.10
2017-10-31T13:11:54.826Z,11.10
2017-10-31T13:13:57.545Z,11.10
2017-10-31T13:16:00.240Z,11.20
2017-10-31T13:18:03.672Z,11.30
2017-10-31T13:20:06.376Z,11.20
2017-10-31T13:22:09.061Z,11.30
2017-10-31T13:24:11.799Z,11.10
2017-10-31T13:26:15.431Z,11.10
2017-10-31T13:28:19.019Z,11.10
2017-10-31T13:30:22.514Z,11.10
2017-10-31T13:32:26.183Z,11.10
2017-10-31T13:34:29.811Z,11.10
2017-10-31T13:36:34.205Z,11.20
2017-10-31T13:38:37.799Z,11.20
2017-10-31T13:40:41.529Z,11.20
2017-10-31T13:42:45.247Z,11.20
2017-10-31T13:44:47.933Z,11.20
2017-10-31T13:46:52.586Z,11.10
2017-10-31T13:48:57.463Z,11.00
2017-10-31T13:51:00.884Z,11.00
2017-10-31T13:53:03.620Z,10.90
2017-10-31T13:55:06.371Z,10.80
2017-10-31T13:57:09.116Z,10.80
2017-10-31T13:59:11.800Z,10.60
2017-10-31T14:01:14.623Z,10.70
2017-10-31T14:03:17.715Z,10.60
2017-10-31T14:05:20.836Z,10.50
2017-10-31T14:07:23.726Z,10.50
2017-10-31T14:09:26.852Z,10.50
2017-10-31T14:11:30.005Z,10.50
2017-10-31T14:13:33.690Z,10.40
2017-10-31T14:15:36.386Z,10.20
2017-10-31T14:17:39.847Z,10.10
2017-10-31T14:19:42.987Z,10.10
2017-10-31T14:21:46.140Z,10.20
2017-10-31T14:23:48.819Z,10.20
2017-10-31T14:25:51.550Z,10.10
2017-10-31T14:27:54.243Z,10.10
2017-10-31T14:29:57.007Z,10.10
2017-10-31T14:31:59.701Z,10.10
2017-10-31T14:34:02.566Z,10.10
2017-10-31T14:36:05.824Z,10.10
2017-10-31T14:38:08.617Z,10.10
2017-10-31T14:40:11.375Z,10.10
2017-10-31T14:42:14.908Z,10.10
2017-10-31T14:44:17.616Z,10.10
2017-10-31T14:46:20.361Z,10.10
2017-10-31T14:48:23.052Z,10.10
2017-10-31T14:50:25.777Z,10.10
2017-10-31T14:52:29.312Z,10.00
2017-10-31T14:54:32.923Z,10.00
2017-10-31T14:56:35.705Z,9.90
2017-10-31T14:58:38.466Z,10.00
2017-10-31T15:00:41.424Z,10.00
2017-10-31T15:02:45.048Z,10.00
2017-10-31T15:04:47.731Z,10.00
2017-10-31T15:06:50.522Z,10.00
2017-10-31T15:08:53.229Z,10.00
2017-10-31T15:10:56.088Z,10.00
2017-10-31T15:12:58.856Z,10.00
2017-10-31T15:15:01.614Z,10.00
2017-10-31T15:17:04.578Z,10.00
2017-10-31T15:19:07.270Z,10.00
2017-10-31T15:21:10.113Z,10.00
2017-10-31T15:23:13.554Z,9.90
2017-10-31T15:25:16.255Z,9.90
2017-10-31T15:27:19.005Z,9.90
2017-10-31T15:29:21.885Z,9.90
2017-10-31T15:31:24.664Z,9.90
2017-10-31T15:33:27.667Z,9.90
2017-10-31T15:35:30.458Z,9.90
2017-10-31T15:37:33.305Z,9.80
2017-10-31T15:39:36.305Z,9.80
2017-10-31T15:41:39.173Z,9.80
2017-10-31T15:43:42.153Z,9.80
2017-10-31T15:45:45.049Z,9.80
2017-10-31T15:47:47.918Z,9.80
2017-10-31T15:49:50.604Z,9.70
2017-10-31T15:51:53.473Z,9.80
2017-10-31T15:53:56.269Z,9.70
2017-10-31T15:55:58.984Z,9.70
2017-10-31T15:58:02.451Z,9.70
2017-10-31T16:00:05.153Z,9.70
2017-10-31T16:02:07.868Z,9.70
2017-10-31T16:04:10.565Z,9.70
2017-10-31T16:06:13.295Z,9.70
2017-10-31T16:08:16.752Z,9.70
2017-10-31T16:10:19.517Z,9.70
2017-10-31T16:12:22.402Z,9.70
2017-10-31T16:14:25.364Z,9.60
2017-10-31T16:16:28.083Z,9.70
2017-10-31T16:18:31.005Z,9.60
2017-10-31T16:20:33.804Z,9.60
2017-10-31T16:22:36.514Z,9.60
2017-10-31T16:24:39.204Z,9.60
2017-10-31T16:26:41.922Z,9.60
2017-10-31T16:28:44.627Z,9.60
2017-10-31T16:30:47.536Z,9.60
2017-10-31T16:32:50.229Z,9.60
2017-10-31T16:34:54.177Z,9.60
2017-10-31T16:36:56.952Z,9.60
2017-10-31T16:38:59.835Z,9.60
2017-10-31T16:41:02.641Z,9.60
2017-10-31T16:43:05.332Z,9.60
2017-10-31T16:45:08.090Z,9.60
2017-10-31T16:47:10.865Z,9.60
2017-10-31T16:49:13.909Z,9.70
2017-10-31T16:51:16.813Z,9.70
2017-10-31T16:53:19.595Z,9.70
2017-10-31T16:55:22.473Z,9.70
2017-10-31T16:57:25.457Z,9.70
2017-10-31T16:59:28.156Z,9.70
2017-10-31T17:01:30.925Z,9.70
2017-10-31T17:03:33.654Z,9.70
2017-10-31T17:05:36.358Z,9.70
2017-10-31T17:07:39.152Z,9.70
2017-10-31T17:09:41.939Z,9.70
2017-10-31T17:11:44.629Z,9.70
2017-10-31T17:13:47.377Z,9.70
2017-10-31T17:15:50.093Z,9.70
2017-10-31T17:17:52.934Z,9.70
2017-10-31T17:19:55.629Z,9.70
2017-10-31T17:21:58.390Z,9.70
2017-10-31T17:24:01.104Z,9.70
2017-10-31T17:26:04.046Z,9.70
2017-10-31T17:28:06.765Z,9.70
2017-10-31T17:30:09.453Z,9.70
2017-10-31T17:32:12.908Z,9.80
2017-10-31T17:34:15.639Z,9.80
2017-10-31T17:36:19.169Z,9.70
2017-10-31T17:38:21.947Z,9.70
2017-10-31T17:40:24.911Z,9.70
2017-10-31T17:42:27.707Z,9.80
2017-10-31T17:44:30.616Z,9.80
2017-10-31T17:46:33.326Z,9.80
2017-10-31T17:48:36.871Z,9.70
2017-10-31T17:50:39.761Z,9.70
2017-10-31T17:52:42.457Z,9.70
2017-10-31T17:54:45.301Z,9.70
2017-10-31T17:56:48.184Z,9.60
2017-10-31T17:58:50.874Z,9.50
2017-10-31T18:00:53.654Z,9.50
2017-10-31T18:02:56.417Z,9.40
2017-10-31T18:04:59.398Z,9.40
2017-10-31T18:07:02.105Z,9.40
2017-10-31T18:09:04.850Z,9.40
2017-10-31T18:11:07.578Z,9.40
2017-10-31T18:13:10.277Z,9.30
2017-10-31T18:15:13.113Z,9.30
2017-10-31T18:17:15.875Z,9.40
2017-10-31T18:19:18.560Z,9.40
2017-10-31T18:21:21.541Z,9.50
2017-10-31T18:23:24.405Z,9.50
2017-10-31T18:25:27.105Z,9.40
2017-10-31T18:27:29.959Z,9.50
2017-10-31T18:29:32.945Z,9.50
2017-10-31T18:31:35.660Z,9.50
2017-10-31T18:33:38.532Z,9.40
2017-10-31T18:35:41.384Z,9.50
2017-10-31T18:37:44.101Z,9.50
2017-10-31T18:39:47.043Z,9.50
2017-10-31T18:41:49.840Z,9.50
2017-10-31T18:43:52.720Z,9.50
2017-10-31T18:45:55.585Z,9.50
2017-10-31T18:47:58.301Z,9.50
2017-10-31T18:50:01.001Z,9.50
2017-10-31T18:52:04.558Z,9.50
2017-10-31T18:54:07.345Z,9.50
2017-10-31T18:56:10.225Z,9.50
2017-10-31T18:58:12.988Z,9.50
2017-10-31T19:00:15.783Z,9.50
2017-10-31T19:02:18.647Z,9.40
2017-10-31T19:04:21.359Z,9.40
2017-10-31T19:06:24.077Z,9.40
2017-10-31T19:08:26.967Z,9.40
2017-10-31T19:10:29.846Z,9.40
2017-10-31T19:12:32.545Z,9.40
2017-10-31T19:14:35.328Z,9.30
2017-10-31T19:16:38.185Z,9.30
2017-10-31T19:18:41.167Z,9.30
2017-10-31T19:20:43.943Z,9.30
2017-10-31T19:22:46.666Z,9.30
2017-10-31T19:24:49.502Z,9.30
2017-10-31T19:26:52.384Z,9.30
2017-10-31T19:28:55.090Z,9.30
2017-10-31T19:30:58.031Z,9.30
2017-10-31T19:33:00.924Z,9.30
2017-10-31T19:35:03.645Z,9.30
2017-10-31T19:37:06.404Z,9.30
2017-10-31T19:39:09.157Z,9.30
2017-10-31T19:41:11.963Z,9.30
2017-10-31T19:43:14.899Z,9.40
2017-10-31T19:45:17.865Z,9.40
2017-10-31T19:47:21.358Z,9.40
2017-10-31T19:49:25.096Z,9.40
2017-10-31T19:51:27.874Z,9.40
2017-10-31T19:53:30.865Z,9.40
2017-10-31T19:55:33.841Z,9.40
2017-10-31T19:57:36.721Z,9.30
2017-10-31T19:59:39.533Z,9.30
2017-10-31T20:01:42.384Z,9.40
2017-10-31T20:03:45.276Z,9.30
2017-10-31T20:05:48.248Z,9.40
2017-10-31T20:07:51.052Z,9.40
2017-10-31T20:09:53.826Z,9.40
2017-10-31T20:11:56.874Z,9.40
2017-10-31T20:13:59.573Z,9.30
2017-10-31T20:16:02.343Z,9.40
2017-10-31T20:18:05.147Z,9.40
2017-10-31T20:20:07.848Z,9.40
2017-10-31T20:22:11.418Z,9.40
2017-10-31T20:24:14.171Z,9.40
2017-10-31T20:26:16.882Z,9.40
2017-10-31T20:28:19.597Z,9.40
2017-10-31T20:30:23.065Z,9.40
2017-10-31T20:32:25.773Z,9.40
2017-10-31T20:34:29.244Z,9.40
2017-10-31T20:36:31.977Z,9.40
2017-10-31T20:38:34.752Z,9.40
2017-10-31T20:40:37.446Z,9.40
2017-10-31T20:42:40.194Z,9.50
2017-10-31T20:44:42.925Z,9.50
2017-10-31T20:46:45.662Z,9.50
2017-10-31T20:48:48.367Z,9.40
2017-10-31T20:50:51.076Z,9.50
2017-10-31T20:52:54.693Z,9.50
2017-10-31T20:54:57.344Z,9.50
2017-10-31T20:57:00.824Z,9.50
2017-10-31T20:59:03.577Z,9.50
2017-10-31T21:01:06.440Z,9.60
2017-10-31T21:03:09.169Z,9.60
2017-10-31T21:05:11.848Z,9.60
2017-10-31T21:07:14.584Z,9.50
2017-10-31T21:09:17.296Z,9.50
2017-10-31T21:11:20.040Z,9.50
2017-10-31T21:13:22.755Z,9.50
2017-10-31T21:15:25.601Z,9.60
2017-10-31T21:17:28.415Z,9.50
2017-10-31T21:19:31.139Z,9.50
2017-10-31T21:21:33.917Z,9.60
2017-10-31T21:23:36.624Z,9.60
2017-10-31T21:25:39.374Z,9.60
2017-10-31T21:27:42.150Z,9.60
2017-10-31T21:29:45.238Z,9.60
2017-10-31T21:31:47.937Z,9.60
2017-10-31T21:33:50.715Z,9.60
2017-10-31T21:35:53.397Z,9.60
2017-10-31T21:37:56.112Z,9.60
2017-10-31T21:39:59.565Z,9.60
2017-10-31T21:42:02.319Z,9.60
2017-10-31T21:44:05.045Z,9.60
2017-10-31T21:46:07.788Z,9.60
2017-10-31T21:48:10.517Z,9.60
2017-10-31T21:50:14.150Z,9.60
2017-10-31T21:52:16.858Z,9.60
2017-10-31T21:54:19.556Z,9.60
2017-10-31T21:56:22.255Z,9.60
2017-10-31T21:58:25.751Z,9.60
2017-10-31T22:00:29.399Z,9.60
2017-10-31T22:02:32.169Z,9.60
2017-10-31T22:04:34.950Z,9.60
2017-10-31T22:06:37.734Z,9.60
2017-10-31T22:08:40.490Z,9.60
2017-10-31T22:10:43.191Z,9.60
2017-10-31T22:12:46.045Z,9.60
2017-10-31T22:14:48.928Z,9.50
2017-10-31T22:16:51.725Z,9.40
2017-10-31T22:18:54.510Z,9.40
2017-10-31T22:20:57.290Z,9.40
2017-10-31T22:23:00.042Z,9.40
2017-10-31T22:25:02.850Z,9.40
2017-10-31T22:27:05.701Z,9.30
2017-10-31T22:29:08.582Z,9.30
2017-10-31T22:31:11.465Z,9.30
2017-10-31T22:33:14.242Z,9.30
2017-10-31T22:35:17.122Z,9.20
2017-10-31T22:37:20.105Z,9.20
2017-10-31T22:39:22.987Z,9.10
2017-10-31T22:41:25.867Z,9.10
2017-10-31T22:43:28.626Z,9.20
2017-10-31T22:45:31.425Z,9.20
2017-10-31T22:47:34.203Z,9.20
2017-10-31T22:49:37.003Z,9.20
2017-10-31T22:51:39.783Z,9.10
2017-10-31T22:53:42.543Z,9.20
2017-10-31T22:55:45.420Z,9.20
2017-10-31T22:57:48.199Z,9.10
2017-10-31T22:59:51.102Z,9.10
2017-10-31T23:01:53.961Z,9.10
2017-10-31T23:03:56.738Z,9.10
2017-10-31T23:05:59.619Z,9.10
2017-10-31T23:08:02.424Z,9.10
2017-10-31T23:10:05.279Z,9.10
2017-10-31T23:12:08.069Z,9.10
2017-10-31T23:14:10.859Z,9.10
2017-10-31T23:16:13.717Z,9.10
2017-10-31T23:18:16.496Z,9.10
2017-10-31T23:20:19.373Z,9.10
2017-10-31T23:22:22.088Z,9.10
2017-10-31T23:24:24.790Z,9.10
2017-10-31T23:26:28.523Z,9.10
2017-10-31T23:28:31.316Z,9.10
2017-10-31T23:30:34.017Z,9.10
2017-10-31T23:32:36.764Z,9.10
2017-10-31T23:34:39.461Z,9.10
2017-10-31T23:36:42.322Z,9.20
2017-10-31T23:38:45.202Z,9.20
2017-10-31T23:40:48.011Z,9.20
2017-10-31T23:42:50.710Z,9.20
2017-10-31T23:44:54.584Z,9.10
2017-10-31T23:46:57.285Z,9.10
2017-10-31T23:48:59.993Z,9.10
2017-10-31T23:51:02.897Z,9.10
2017-10-31T23:53:05.672Z,9.20
2017-10-31T23:55:08.756Z,9.20
2017-10-31T23:57:11.480Z,9.20
2017-10-31T23:59:14.227Z,9.20
